Time;durP1;ratioP1;P1;durP2;ratioP2;P2;SDS_P1;SDS_P2;PMS_P1;PMS_P2;Temp;Humidity;BMP_temperature;BMP_pressure;BME280_temperature;BME280_humidity;BME280_pressure;Samples;Min_cycle;Max_cycle;Signal;HPM_P1;HPM_P2
2023/04/19 00:00:39;;;;;;;;;28.25;25.75;;;;;14.01;55.95;101502.28;5046542;28;47744;-62
2023/04/19 00:03:05;;;;;;;;;29.25;27.25;;;;;14.05;55.72;101502.38;5049934;28;45282;-61
2023/04/19 00:05:31;;;;;;;;;32.50;28.75;;;;;14.04;56.24;101505.91;5049686;28;45132;-62
2023/04/19 00:07:57;;;;;;;;;30.50;25.50;;;;;14.03;55.98;101506.81;5052040;28;45194;-61
2023/04/19 00:10:22;;;;;;;;;34.00;26.50;;;;;14.00;55.99;101502.25;5049630;28;45788;-62
2023/04/19 00:12:47;;;;;;;;;27.25;24.00;;;;;13.97;55.85;101508.47;5049862;28;52680;-61
2023/04/19 00:15:13;;;;;;;;;27.50;27.25;;;;;13.97;55.30;101502.19;5043792;28;45049;-62
2023/04/19 00:17:38;;;;;;;;;32.25;26.50;;;;;13.97;55.94;101518.28;5051858;28;44928;-63
2023/04/19 00:20:05;;;;;;;;;28.50;26.00;;;;;13.93;56.02;101511.94;5047690;28;50215;-61
2023/04/19 00:22:30;;;;;;;;;28.25;24.50;;;;;13.92;56.43;101515.50;5041121;28;45151;-62
2023/04/19 00:24:56;;;;;;;;;26.75;25.25;;;;;13.90;55.96;101505.59;5050147;28;45175;-63
2023/04/19 00:27:21;;;;;;;;;28.25;26.00;;;;;13.81;56.00;101499.13;5049813;28;45494;-61
2023/04/19 00:29:47;;;;;;;;;31.00;25.75;;;;;13.87;55.89;101506.41;5053037;28;45073;-63
2023/04/19 00:32:12;;;;;;;;;28.00;25.75;;;;;13.88;56.01;101513.59;5041723;28;45123;-63
2023/04/19 00:34:37;;;;;;;;;29.00;25.75;;;;;13.85;56.40;101509.94;5043880;28;45238;-64
2023/04/19 00:37:04;;;;;;;;;30.50;28.25;;;;;13.87;56.59;101505.50;5049123;28;45140;-62
2023/04/19 00:39:29;;;;;;;;;29.75;27.50;;;;;13.86;56.56;101514.44;5050088;28;45714;-63
2023/04/19 00:41:56;;;;;;;;;25.00;20.25;;;;;13.86;55.92;101514.44;5049201;28;45081;-61
2023/04/19 00:44:21;;;;;;;;;24.00;23.50;;;;;13.79;56.39;101508.00;5049351;28;45196;-61
2023/04/19 00:46:47;;;;;;;;;28.25;23.00;;;;;13.81;56.74;101501.81;5054362;28;45185;-61
2023/04/19 00:49:12;;;;;;;;;28.50;23.75;;;;;13.84;56.29;101511.69;5044581;28;45415;-61
2023/04/19 00:51:38;;;;;;;;;25.75;23.25;;;;;13.68;56.18;101480.88;5048739;28;44998;-63
2023/04/19 00:54:03;;;;;;;;;27.50;25.00;;;;;13.78;56.15;101496.34;5048698;28;45583;-62
2023/04/19 00:56:29;;;;;;;;;24.00;24.00;;;;;13.85;56.40;101509.94;5048673;28;45132;-62
2023/04/19 00:58:55;;;;;;;;;27.25;25.25;;;;;13.83;56.29;101502.75;5045640;28;45182;-62
2023/04/19 01:01:21;;;;;;;;;22.00;22.00;;;;;13.85;56.34;101510.84;5047468;28;44979;-62
2023/04/19 01:03:47;;;;;;;;;24.50;21.25;;;;;13.79;56.03;101498.19;5025983;28;45049;-62
2023/04/19 01:06:13;;;;;;;;;28.25;26.25;;;;;13.78;56.59;101500.81;5051154;28;44889;-64
2023/04/19 01:08:39;;;;;;;;;29.00;26.50;;;;;13.77;56.22;101501.69;5048424;28;45813;-62
2023/04/19 01:11:04;;;;;;;;;33.00;27.75;;;;;13.73;56.17;101505.19;5050173;28;45187;-62
2023/04/19 01:13:30;;;;;;;;;28.00;23.25;;;;;13.74;55.91;101505.22;5049385;28;45130;-62
2023/04/19 01:15:56;;;;;;;;;32.75;23.50;;;;;13.72;55.95;101492.59;5053513;28;44942;-60
2023/04/19 01:18:24;;;;;;;;;29.25;23.75;;;;;13.67;56.66;101496.94;5042361;28;46835;-62
2023/04/19 01:20:50;;;;;;;;;26.00;20.25;;;;;13.32;56.25;101428.06;5040540;28;44945;-61
2023/04/19 01:23:15;;;;;;;;;31.25;22.25;;;;;13.67;56.48;101496.94;5050536;28;45177;-62
2023/04/19 01:25:41;;;;;;;;;30.00;27.75;;;;;13.65;56.56;101502.28;5047868;28;45029;-62
2023/04/19 01:28:06;;;;;;;;;28.75;23.00;;;;;13.63;56.79;101499.56;5046162;28;45435;-62
2023/04/19 01:30:31;;;;;;;;;33.50;25.25;;;;;13.57;56.68;101487.75;5048550;28;45117;-63
2023/04/19 01:32:57;;;;;;;;;24.00;23.00;;;;;13.59;56.84;101492.28;5048294;28;45713;-63
2023/04/19 01:35:22;;;;;;;;;29.75;23.75;;;;;13.59;56.23;101499.44;5018448;28;45213;-63
2023/04/19 01:37:47;;;;;;;;;25.25;22.25;;;;;13.53;56.81;101489.44;5043737;28;59177;-62
2023/04/19 01:40:13;;;;;;;;;21.75;20.25;;;;;13.44;56.84;101476.66;5048177;28;45022;-63
2023/04/19 01:42:38;;;;;;;;;25.25;22.00;;;;;13.51;56.12;101493.84;5051012;28;45139;-62
2023/04/19 01:45:04;;;;;;;;;19.00;18.00;;;;;13.53;57.14;101492.13;5050392;28;51977;-63
2023/04/19 01:47:29;;;;;;;;;26.75;24.25;;;;;13.54;56.38;101490.34;5052401;28;45105;-62
2023/04/19 01:49:55;;;;;;;;;23.25;21.00;;;;;13.51;56.46;101491.16;5053431;28;44981;-62
2023/04/19 01:52:20;;;;;;;;;27.25;23.50;;;;;13.42;56.68;101473.03;5052284;28;45028;-63
2023/04/19 01:54:45;;;;;;;;;22.50;18.75;;;;;13.41;56.82;101468.56;5051586;28;45040;-61
2023/04/19 01:57:11;;;;;;;;;22.50;19.25;;;;;13.48;56.24;101496.47;5052188;28;45326;-61
2023/04/19 01:59:36;;;;;;;;;23.75;21.25;;;;;13.45;56.93;101486.56;5045343;28;60758;-62
2023/04/19 02:02:01;;;;;;;;;26.00;25.50;;;;;13.39;56.79;101496.22;5052197;28;49473;-62
2023/04/19 02:04:26;;;;;;;;;22.00;20.50;;;;;13.38;56.82;101494.41;5052165;28;45129;-62
2023/04/19 02:06:52;;;;;;;;;19.00;16.00;;;;;13.35;56.86;101486.28;5050711;28;60115;-61
2023/04/19 02:09:17;;;;;;;;;23.50;21.00;;;;;13.37;57.20;101488.13;5051114;28;49070;-63
2023/04/19 02:11:42;;;;;;;;;23.50;20.00;;;;;13.37;56.73;101484.53;5049472;28;48266;-62
2023/04/19 02:14:08;;;;;;;;;19.00;17.00;;;;;13.36;57.28;101478.25;5038588;28;45233;-64
2023/04/19 02:16:33;;;;;;;;;26.25;21.25;;;;;13.39;56.81;101490.84;5048961;28;46366;-62
2023/04/19 02:18:58;;;;;;;;;20.75;18.50;;;;;13.35;56.74;101479.13;5052539;28;54980;-62
2023/04/19 02:21:24;;;;;;;;;24.50;21.75;;;;;13.35;57.24;101489.88;5051179;28;59145;-61
2023/04/19 02:23:50;;;;;;;;;24.25;22.25;;;;;13.32;57.23;101484.41;5039384;28;45180;-61
2023/04/19 02:26:15;;;;;;;;;23.00;20.00;;;;;13.30;57.35;101474.47;5052950;28;45856;-62
2023/04/19 02:28:40;;;;;;;;;30.25;24.50;;;;;13.27;57.45;101470.84;5051188;28;45176;-63
2023/04/19 02:31:06;;;;;;;;;22.75;22.00;;;;;13.19;57.56;101466.13;5050449;28;44990;-62
2023/04/19 02:33:32;;;;;;;;;31.25;21.00;;;;;13.24;57.06;101478.78;5052656;28;45593;-60
2023/04/19 02:35:57;;;;;;;;;27.75;22.25;;;;;13.28;57.70;101491.44;5050307;28;65857;-64
2023/04/19 02:38:22;;;;;;;;;21.25;21.00;;;;;13.24;57.74;101481.47;5051994;28;65144;-62
2023/04/19 02:40:48;;;;;;;;;30.50;22.50;;;;;13.19;56.85;101476.88;5051519;28;44964;-61
2023/04/19 02:43:13;;;;;;;;;23.75;20.50;;;;;13.23;57.07;101481.44;5052118;28;46003;-65
2023/04/19 02:45:38;;;;;;;;;22.75;20.50;;;;;13.20;57.69;101478.66;5047205;28;45336;-61
2023/04/19 02:48:04;;;;;;;;;20.75;19.00;;;;;13.06;56.74;101457.72;5053080;28;44963;-62
2023/04/19 02:50:30;;;;;;;;;21.50;19.00;;;;;13.05;57.82;101458.63;5052681;28;45138;-62
2023/04/19 02:52:56;;;;;;;;;24.00;18.75;;;;;13.16;57.05;101483.03;5054990;28;45090;-62
2023/04/19 02:55:22;;;;;;;;;21.25;20.00;;;;;13.09;57.44;101471.25;5045977;28;45543;-62
2023/04/19 02:57:47;;;;;;;;;21.00;19.75;;;;;13.14;56.87;101478.53;5050868;28;45275;-62
2023/04/19 03:00:13;;;;;;;;;23.00;20.50;;;;;13.12;57.40;101486.53;5050727;28;45154;-63
2023/04/19 03:02:38;;;;;;;;;24.00;23.25;;;;;12.99;56.87;101469.16;5051118;28;45370;-63
2023/04/19 03:05:05;;;;;;;;;23.50;20.75;;;;;13.06;57.28;101489.94;5046776;28;45156;-60
2023/04/19 03:07:30;;;;;;;;;23.00;21.00;;;;;13.02;57.30;101493.41;5050025;28;45142;-60
2023/04/19 03:09:55;;;;;;;;;26.50;19.75;;;;;12.98;57.67;101493.25;5044722;28;45224;-62
2023/04/19 03:12:21;;;;;;;;;19.50;17.00;;;;;12.96;57.73;101486.97;5038602;28;45444;-60
2023/04/19 03:14:46;;;;;;;;;20.75;19.50;;;;;12.97;58.28;101489.69;5050688;28;46298;-61
2023/04/19 03:17:11;;;;;;;;;21.00;20.00;;;;;12.94;57.92;101483.34;5049845;28;45184;-61
2023/04/19 03:19:37;;;;;;;;;21.00;17.75;;;;;12.91;57.44;101481.47;5050732;28;45222;-61
2023/04/19 03:22:02;;;;;;;;;21.00;16.25;;;;;12.94;57.67;101489.59;5051225;28;45026;-62
2023/04/19 03:24:29;;;;;;;;;20.00;18.75;;;;;12.91;57.60;101492.19;5034954;28;47414;-62
2023/04/19 03:26:55;;;;;;;;;21.00;20.75;;;;;12.94;57.14;101489.59;5052511;28;44856;-62
2023/04/19 03:29:21;;;;;;;;;20.00;20.00;;;;;12.91;57.33;101486.81;5052643;28;45125;-60
2023/04/19 03:31:47;;;;;;;;;19.50;18.75;;;;;12.96;57.82;101490.53;5052888;28;45076;-61
2023/04/19 03:34:12;;;;;;;;;17.25;16.50;;;;;12.93;57.28;101487.75;5051985;28;45705;-62
2023/04/19 03:36:38;;;;;;;;;25.25;20.00;;;;;12.90;57.67;101480.56;5051265;28;45079;-63
2023/04/19 03:39:03;;;;;;;;;20.25;19.00;;;;;12.92;57.27;101488.66;5050160;28;45010;-62
2023/04/19 03:41:29;;;;;;;;;25.00;21.00;;;;;12.92;57.29;101488.66;5049092;28;45219;-62
2023/04/19 03:43:54;;;;;;;;;18.75;16.75;;;;;12.89;57.92;101484.09;5047932;28;45850;-62
2023/04/19 03:46:20;;;;;;;;;24.00;23.00;;;;;12.84;57.81;101469.66;5048773;28;45331;-61
2023/04/19 03:48:45;;;;;;;;;25.00;19.50;;;;;12.87;57.21;101477.78;5049893;28;45073;-62
2023/04/19 03:51:12;;;;;;;;;20.75;18.25;;;;;12.83;57.52;101472.28;5030427;28;45226;-62
2023/04/19 03:53:37;;;;;;;;;20.75;20.75;;;;;12.89;57.78;101488.56;5045388;28;45791;-60
2023/04/19 03:56:03;;;;;;;;;19.50;18.75;;;;;12.82;57.58;101475.81;5050591;28;59959;-62
2023/04/19 03:58:28;;;;;;;;;24.75;19.50;;;;;12.82;58.36;101481.19;5031482;28;45043;-60
2023/04/19 04:00:53;;;;;;;;;20.50;18.00;;;;;12.81;57.67;101480.28;5052110;28;45054;-62
2023/04/19 04:03:19;;;;;;;;;21.50;20.00;;;;;12.78;58.55;101485.56;5052749;28;45000;-61
2023/04/19 04:05:44;;;;;;;;;19.50;18.25;;;;;12.78;57.61;101473.94;5051331;28;51724;-62
2023/04/19 04:08:09;;;;;;;;;22.25;19.25;;;;;12.70;58.10;101466.59;5055475;28;45178;-62
2023/04/19 04:10:35;;;;;;;;;20.50;19.25;;;;;12.74;57.89;101472.94;5054141;28;45053;-61
2023/04/19 04:13:00;;;;;;;;;20.25;18.25;;;;;12.65;57.54;101475.34;5052076;28;45484;-65
2023/04/19 04:15:25;;;;;;;;;21.75;19.00;;;;;12.64;57.91;101478.91;5042031;28;45489;-62
2023/04/19 04:17:51;;;;;;;;;26.25;19.25;;;;;12.59;58.67;101484.13;5034277;28;45350;-63
2023/04/19 04:20:16;;;;;;;;;19.00;18.75;;;;;12.55;57.69;101487.56;5033877;28;45526;-63
2023/04/19 04:22:42;;;;;;;;;22.25;20.25;;;;;12.52;58.46;101488.38;5012555;28;46071;-63
2023/04/19 04:25:09;;;;;;;;;26.50;23.00;;;;;12.48;58.26;101473.06;5035487;28;45518;-61
2023/04/19 04:27:36;;;;;;;;;18.00;18.00;;;;;12.53;58.42;101483.91;5029692;28;45003;-61
2023/04/19 04:30:01;;;;;;;;;21.50;18.25;;;;;12.43;58.46;101465.75;5047505;28;45017;-62
2023/04/19 04:32:27;;;;;;;;;27.50;23.75;;;;;12.45;58.41;101474.75;5049523;28;45923;-63
2023/04/19 04:34:52;;;;;;;;;24.50;22.75;;;;;12.46;58.41;101481.94;5049051;28;60111;-61
2023/04/19 04:37:17;;;;;;;;;24.00;22.25;;;;;12.51;58.20;101485.66;5056065;28;55333;-60
2023/04/19 04:39:43;;;;;;;;;24.50;22.75;;;;;12.48;58.63;101483.78;5054181;28;44830;-61
2023/04/19 04:42:08;;;;;;;;;27.50;23.25;;;;;12.44;58.63;101478.28;5051270;28;45128;-63
2023/04/19 04:44:35;;;;;;;;;20.00;19.75;;;;;12.38;58.77;101480.78;5051592;28;45027;-62
2023/04/19 04:47:00;;;;;;;;;19.75;17.25;;;;;12.29;58.82;101479.66;5051177;28;45015;-63
2023/04/19 04:49:25;;;;;;;;;24.00;20.00;;;;;12.29;58.50;101479.66;5054951;28;44991;-63
2023/04/19 04:51:51;;;;;;;;;25.00;21.00;;;;;12.31;59.77;101487.72;5048651;28;45280;-62
2023/04/19 04:54:16;;;;;;;;;24.50;20.25;;;;;12.37;59.31;101487.91;5050474;28;45291;-64
2023/04/19 04:56:41;;;;;;;;;24.50;22.75;;;;;12.39;58.92;101488.88;5049819;28;52263;-64
2023/04/19 04:59:10;;;;;;;;;25.00;22.50;;;;;12.41;58.77;101491.59;5050042;28;44998;-63
2023/04/19 05:01:35;;;;;;;;;26.75;24.00;;;;;12.41;58.95;101496.97;5048579;28;45804;-63
2023/04/19 05:04:00;;;;;;;;;21.75;20.25;;;;;12.35;59.30;101495.88;5049175;28;45157;-63
2023/04/19 05:06:26;;;;;;;;;29.00;21.25;;;;;12.35;58.71;101490.53;5056983;28;45009;-63
2023/04/19 05:08:51;;;;;;;;;24.50;20.75;;;;;12.42;58.94;101498.75;5050187;28;45177;-64
2023/04/19 05:11:17;;;;;;;;;20.00;18.25;;;;;12.42;59.00;101491.63;5050379;28;45720;-61
2023/04/19 05:13:43;;;;;;;;;24.00;22.50;;;;;12.45;59.53;101498.88;5051086;28;45029;-62
2023/04/19 05:16:08;;;;;;;;;29.00;23.50;;;;;12.42;59.28;101496.97;5051129;28;45210;-60
2023/04/19 05:18:33;;;;;;;;;25.75;23.75;;;;;12.34;58.96;101485.13;5049717;28;45128;-62
2023/04/19 05:20:59;;;;;;;;;27.50;24.75;;;;;12.40;58.96;101489.78;5070428;28;46170;-61
2023/04/19 05:23:24;;;;;;;;;23.50;20.00;;;;;12.43;58.75;101496.13;5056980;28;45111;-62
2023/04/19 05:25:49;;;;;;;;;19.75;19.00;;;;;12.42;58.55;101504.13;5064752;28;45076;-63
2023/04/19 05:28:15;;;;;;;;;28.50;28.00;;;;;12.33;59.50;101489.56;5058295;28;45077;-62
2023/04/19 05:30:40;;;;;;;;;23.75;22.25;;;;;12.40;59.17;101508.53;5054887;28;45295;-64
2023/04/19 05:33:05;;;;;;;;;28.25;27.50;;;;;12.33;58.83;101499.41;5053968;28;55858;-62
2023/04/19 05:35:31;;;;;;;;;23.50;23.00;;;;;12.35;59.41;101517.31;5059360;28;45315;-60
2023/04/19 05:37:56;;;;;;;;;26.25;22.75;;;;;12.32;58.70;101519.94;5067465;28;44895;-62
2023/04/19 05:40:23;;;;;;;;;27.75;23.50;;;;;12.27;58.86;101520.63;5051072;28;45223;-62
2023/04/19 05:42:48;;;;;;;;;31.25;28.00;;;;;12.30;59.47;101523.41;5034132;28;45515;-62
2023/04/19 05:45:15;;;;;;;;;26.50;22.75;;;;;12.29;59.15;101522.50;5051099;28;45116;-63
2023/04/19 05:47:41;;;;;;;;;31.50;24.25;;;;;12.27;59.93;101526.88;5039212;28;45191;-63
2023/04/19 05:50:06;;;;;;;;;26.00;20.75;;;;;12.25;59.63;101512.53;5047224;28;45725;-64
2023/04/19 05:52:32;;;;;;;;;24.50;23.25;;;;;12.35;58.94;101525.34;5060566;28;45005;-62
2023/04/19 05:54:58;;;;;;;;;29.25;24.00;;;;;12.41;59.26;101523.75;5053841;28;45003;-63
2023/04/19 05:57:24;;;;;;;;;27.50;23.00;;;;;12.41;59.20;101518.41;5053701;28;45170;-61
2023/04/19 05:59:50;;;;;;;;;24.00;19.50;;;;;12.43;59.50;101519.34;5055734;28;45369;-62
2023/04/19 06:02:15;;;;;;;;;26.75;24.25;;;;;12.42;58.76;101534.50;5033541;28;45090;-62
2023/04/19 06:04:40;;;;;;;;;28.25;25.00;;;;;12.28;58.83;101520.69;5052836;28;44976;-63
2023/04/19 06:07:06;;;;;;;;;29.50;25.75;;;;;12.42;58.76;101542.53;5051737;28;45050;-62
2023/04/19 06:09:32;;;;;;;;;26.25;23.50;;;;;12.40;59.27;101524.63;5034854;28;46858;-61
2023/04/19 06:11:57;;;;;;;;;28.50;24.00;;;;;12.53;58.35;101542.91;5054264;28;45232;-63
2023/04/19 06:14:23;;;;;;;;;34.25;24.75;;;;;12.49;58.81;101516.88;5068260;28;45045;-62
2023/04/19 06:16:48;;;;;;;;;28.75;26.25;;;;;12.55;58.98;101522.41;5063620;28;45173;-61
2023/04/19 06:19:14;;;;;;;;;25.50;25.00;;;;;12.63;58.66;101528.91;5056341;28;45495;-61
2023/04/19 06:21:40;;;;;;;;;44.25;36.00;;;;;12.66;58.34;101538.81;5051475;28;45208;-61
2023/04/19 06:24:06;;;;;;;;;44.75;35.50;;;;;12.59;58.60;101518.03;5055872;28;45077;-61
2023/04/19 06:26:31;;;;;;;;;49.50;40.50;;;;;12.74;57.59;101542.66;5051195;28;45404;-63
2023/04/19 06:28:57;;;;;;;;;29.50;24.50;;;;;12.77;58.43;101545.44;5058525;28;46005;-61
2023/04/19 06:31:22;;;;;;;;;29.75;23.00;;;;;12.67;57.45;101524.53;5050343;28;44884;-60
2023/04/19 06:33:48;;;;;;;;;17.25;16.25;;;;;12.82;58.66;101541.09;5048072;28;45195;-62
2023/04/19 06:36:13;;;;;;;;;28.50;23.25;;;;;12.80;57.49;101533.88;5051569;28;45469;-63
2023/04/19 06:38:40;;;;;;;;;23.50;20.00;;;;;12.84;57.74;101542.06;5056334;28;45430;-61
2023/04/19 06:41:08;;;;;;;;;28.50;23.75;;;;;12.89;57.83;101539.50;5033913;28;45377;-62
2023/04/19 06:43:33;;;;;;;;;25.25;23.75;;;;;12.89;57.91;101540.41;5057640;28;45021;-63
2023/04/19 06:45:59;;;;;;;;;25.75;25.25;;;;;13.00;57.35;101550.53;5050122;28;45080;-61
2023/04/19 06:48:26;;;;;;;;;27.25;26.50;;;;;13.00;57.78;101546.09;5053057;28;45625;-61
2023/04/19 06:50:52;;;;;;;;;33.75;30.00;;;;;13.12;57.25;101550.00;5051273;28;45200;-62
2023/04/19 06:53:17;;;;;;;;;28.00;24.50;;;;;13.16;56.80;101551.91;5054344;28;45678;-62
2023/04/19 06:55:43;;;;;;;;;29.75;26.50;;;;;13.12;57.37;101529.44;5055757;28;45124;-62
2023/04/19 06:58:09;;;;;;;;;39.75;32.25;;;;;13.24;56.63;101553.03;5050749;28;46159;-65
2023/04/19 07:00:35;;;;;;;;;29.00;26.00;;;;;13.25;57.47;101546.81;5051181;28;45152;-64
2023/04/19 07:03:00;;;;;;;;;30.00;27.00;;;;;13.30;56.63;101545.16;5034308;28;45081;-61
2023/04/19 07:05:26;;;;;;;;;26.75;22.00;;;;;13.35;56.72;101556.06;5054612;28;45025;-65
2023/04/19 07:07:51;;;;;;;;;30.00;29.00;;;;;13.39;56.39;101549.91;5058361;28;45132;-62
2023/04/19 07:10:17;;;;;;;;;29.00;25.50;;;;;13.38;57.11;101549.00;5054521;28;45067;-60
2023/04/19 07:12:42;;;;;;;;;30.50;27.00;;;;;13.38;56.43;101538.28;5050820;28;44971;-63
2023/04/19 07:15:08;;;;;;;;;32.25;26.25;;;;;13.45;56.31;101548.28;5049957;28;45274;-63
2023/04/19 07:17:35;;;;;;;;;28.75;26.25;;;;;13.51;56.40;101544.84;5049305;28;45241;-61
2023/04/19 07:20:02;;;;;;;;;34.50;31.00;;;;;13.48;55.93;101526.00;5048926;28;44958;-62
2023/04/19 07:22:28;;;;;;;;;30.75;27.00;;;;;13.66;56.03;101549.75;5049344;28;45435;-63
2023/04/19 07:24:53;;;;;;;;;23.75;22.50;;;;;13.69;56.11;101541.75;5051572;28;45068;-63
2023/04/19 07:27:19;;;;;;;;;36.50;30.50;;;;;13.79;55.84;101551.91;5063176;28;45256;-63
2023/04/19 07:29:45;;;;;;;;;27.75;26.75;;;;;13.90;55.51;101553.94;5052124;28;45083;-63
2023/04/19 07:32:11;;;;;;;;;30.00;27.00;;;;;13.93;55.70;101552.25;5052801;28;44939;-64
2023/04/19 07:34:36;;;;;;;;;28.75;26.50;;;;;13.98;55.07;101563.09;5053020;28;45173;-63
2023/04/19 07:37:02;;;;;;;;;30.75;26.75;;;;;13.92;55.29;101552.19;5052073;28;45450;-63
2023/04/19 07:39:29;;;;;;;;;27.75;26.50;;;;;13.99;55.51;101556.84;5052038;28;47285;-62
2023/04/19 07:41:55;;;;;;;;;31.50;27.25;;;;;14.09;55.22;101552.63;5055370;28;45169;-61
2023/04/19 07:44:20;;;;;;;;;27.00;26.00;;;;;14.15;55.00;101555.47;5049154;28;45006;-61
2023/04/19 07:46:45;;;;;;;;;30.25;27.75;;;;;14.22;54.83;101553.84;5049773;28;47685;-63
2023/04/19 07:49:11;;;;;;;;;31.75;22.50;;;;;14.30;54.58;101563.00;5049730;28;45221;-62
2023/04/19 07:51:36;;;;;;;;;33.00;29.25;;;;;14.39;54.39;101560.53;5050773;28;53782;-61
2023/04/19 07:54:02;;;;;;;;;31.75;26.25;;;;;14.45;54.64;101555.31;5051931;28;45256;-63
2023/04/19 07:56:27;;;;;;;;;29.50;27.00;;;;;14.53;54.54;101567.13;5060414;28;45595;-65
2023/04/19 07:58:53;;;;;;;;;33.00;30.50;;;;;14.61;54.13;101553.00;5050150;28;47536;-63
2023/04/19 08:01:18;;;;;;;;;33.00;30.00;;;;;14.48;54.25;101517.72;5050838;28;44938;-63
2023/04/19 08:03:43;;;;;;;;;33.00;26.50;;;;;14.70;53.83;101553.19;5051846;28;44999;-63
2023/04/19 08:06:09;;;;;;;;;24.75;24.00;;;;;14.79;53.91;101550.72;5051654;28;63061;-60
2023/04/19 08:08:37;;;;;;;;;31.25;29.50;;;;;14.84;53.74;101551.72;5051687;28;45151;-63
2023/04/19 08:11:04;;;;;;;;;35.75;30.25;;;;;14.99;53.71;101550.25;5050360;28;45032;-63
2023/04/19 08:13:29;;;;;;;;;27.25;27.25;;;;;15.03;53.35;101553.03;5058057;28;47526;-64
2023/04/19 08:15:55;;;;;;;;;30.50;29.50;;;;;15.02;53.26;101536.84;5033690;28;45517;-61
2023/04/19 08:18:20;;;;;;;;;27.00;24.75;;;;;15.07;53.48;101540.53;5051392;28;44993;-63
2023/04/19 08:20:46;;;;;;;;;34.00;27.75;;;;;15.08;53.21;101523.53;5048588;28;44903;-63
2023/04/19 08:23:12;;;;;;;;;29.50;24.50;;;;;15.27;52.54;101546.31;5050688;28;45007;-64
2023/04/19 08:25:37;;;;;;;;;22.00;20.75;;;;;15.24;52.64;101525.63;5050986;28;45731;-64
2023/04/19 08:28:04;;;;;;;;;28.25;25.00;;;;;15.36;52.81;101537.50;5048354;28;47272;-63
2023/04/19 08:30:29;;;;;;;;;22.25;22.25;;;;;15.47;52.93;101547.59;5061250;28;45043;-62
2023/04/19 08:32:55;;;;;;;;;31.50;29.00;;;;;15.51;52.76;101544.97;5049635;28;45077;-62
2023/04/19 08:35:21;;;;;;;;;29.00;24.75;;;;;15.60;52.14;101547.84;5049429;28;45301;-64
2023/04/19 08:37:48;;;;;;;;;23.50;22.50;;;;;15.70;52.58;101547.13;5049737;28;45259;-64
2023/04/19 08:40:15;;;;;;;;;28.75;26.00;;;;;15.75;52.13;101541.84;5031730;28;45128;-63
2023/04/19 08:42:41;;;;;;;;;25.25;23.75;;;;;15.87;51.58;101536.69;5030544;28;45129;-64
2023/04/19 08:45:07;;;;;;;;;27.25;25.75;;;;;15.94;51.05;101527.84;5048421;28;45340;-63
2023/04/19 08:47:33;;;;;;;;;26.00;25.00;;;;;16.10;50.82;101542.50;5063350;28;45279;-64
2023/04/19 08:50:04;;;;;;;;;29.50;25.50;;;;;16.19;51.14;101536.34;5051030;28;45064;-63
2023/04/19 08:52:32;;;;;;;;;35.50;31.75;;;;;16.36;50.42;101528.50;5051360;28;45321;-63
2023/04/19 08:55:03;;;;;;;;;29.50;24.50;;;;;16.51;50.21;101533.22;5050834;28;45755;-64
2023/04/19 08:57:32;;;;;;;;;34.25;32.00;;;;;16.56;50.56;101534.16;5051228;28;45149;-63
2023/04/19 08:59:59;;;;;;;;;23.50;22.75;;;;;16.57;49.78;101527.91;5055370;28;45186;-64
2023/04/19 09:02:24;;;;;;;;;29.75;22.75;;;;;16.52;50.13;101533.22;5054379;28;45095;-62
2023/04/19 09:04:50;;;;;;;;;25.00;25.00;;;;;16.59;49.82;101536.91;5034550;28;47283;-64
2023/04/19 09:07:23;;;;;;;;;26.50;22.50;;;;;16.67;49.60;101542.44;5053564;28;45178;-64
2023/04/19 09:10:05;;;;;;;;;29.25;25.75;;;;;16.70;50.09;101537.09;5053622;28;45155;-64
2023/04/19 09:12:30;;;;;;;;;39.00;33.00;;;;;16.75;49.58;101535.34;5052353;28;45238;-63
2023/04/19 09:14:55;;;;;;;;;28.75;28.75;;;;;16.69;49.44;101530.75;5057724;28;45332;-63
2023/04/19 09:17:21;;;;;;;;;29.00;28.00;;;;;16.77;49.37;101531.78;5055106;28;45024;-61
2023/04/19 09:19:49;;;;;;;;;23.00;22.75;;;;;16.83;49.17;101527.34;5054790;28;45080;-62
2023/04/19 09:22:15;;;;;;;;;35.00;28.00;;;;;16.97;49.47;101525.75;5055272;28;45177;-63
2023/04/19 09:24:41;;;;;;;;;29.00;26.75;;;;;17.06;49.17;101528.59;5060278;28;45628;-63
2023/04/19 09:27:12;;;;;;;;;26.50;23.25;;;;;17.18;48.94;101522.44;5049557;28;45895;-64
2023/04/19 09:29:37;;;;;;;;;30.50;27.75;;;;;17.37;48.11;101520.81;5034724;28;45581;-65
2023/04/19 09:32:02;;;;;;;;;54.25;39.75;;;;;17.58;47.89;101509.34;5024058;28;45801;-64
2023/04/19 09:34:29;;;;;;;;;25.00;21.75;;;;;17.78;47.46;101511.31;5055726;22;46093;-62
2023/04/19 09:36:55;;;;;;;;;29.25;23.00;;;;;17.89;46.77;101512.34;5038356;28;45677;-61
2023/04/19 09:39:35;;;;;;;;;25.75;21.75;;;;;17.90;46.78;101497.97;5034776;28;45640;-60
2023/04/19 09:42:00;;;;;;;;;28.00;26.50;;;;;18.02;46.87;101516.06;5029431;28;45527;-62
2023/04/19 09:44:27;;;;;;;;;29.25;22.50;;;;;18.13;46.53;101502.63;5037334;28;46247;-61
2023/04/19 09:46:52;;;;;;;;;18.50;18.25;;;;;18.16;46.23;101508.94;5037654;28;45387;-60
2023/04/19 09:49:25;;;;;;;;;26.25;20.75;;;;;18.15;45.93;101487.31;5019226;28;46068;-62
2023/04/19 09:51:52;;;;;;;;;20.25;19.50;;;;;18.29;46.31;101495.53;5032902;28;45378;-62
2023/04/19 09:54:20;;;;;;;;;24.50;22.75;;;;;18.33;46.46;101495.56;5025961;28;45454;-60
2023/04/19 09:56:45;;;;;;;;;27.50;24.50;;;;;18.37;45.80;101486.56;5037686;28;45444;-61
2023/04/19 09:59:11;;;;;;;;;28.25;25.25;;;;;18.40;45.91;101497.41;5037146;28;45403;-62
2023/04/19 10:01:51;;;;;;;;;30.00;27.00;;;;;18.41;45.70;101490.19;5037726;28;45419;-61
2023/04/19 10:04:20;;;;;;;;;27.25;27.25;;;;;18.47;46.08;101495.63;5024355;28;45705;-61
2023/04/19 10:06:48;;;;;;;;;26.00;22.25;;;;;18.53;45.49;101484.84;5035427;28;45322;-61
2023/04/19 10:09:14;;;;;;;;;20.00;19.00;;;;;18.62;45.23;101496.63;5036671;28;45568;-61
2023/04/19 10:11:42;;;;;;;;;23.50;21.00;;;;;18.65;44.89;101480.41;5036822;28;45276;-62
2023/04/19 10:14:10;;;;;;;;;27.50;22.25;;;;;18.53;45.16;101463.19;5036097;28;46241;-61
2023/04/19 10:16:37;;;;;;;;;20.75;19.25;;;;;18.70;44.55;101484.03;5031903;28;45458;-63
2023/04/19 10:19:11;;;;;;;;;25.50;22.50;;;;;18.66;44.90;101472.28;5011016;28;45532;-61
2023/04/19 10:21:41;;;;;;;;;22.25;20.50;;;;;18.66;44.70;101479.47;5033177;28;45585;-61
2023/04/19 10:24:08;;;;;;;;;28.50;22.25;;;;;18.57;44.87;101456.00;5035229;28;45457;-61
2023/04/19 10:27:11;;;;;;;;;24.75;24.00;;;;;18.67;45.21;101470.47;5033371;28;45369;-60
2023/04/19 10:29:57;;;;;;;;;24.75;21.25;;;;;18.65;45.23;101465.06;5034608;28;45413;-62
2023/04/19 10:32:27;;;;;;;;;18.75;16.75;;;;;18.66;44.71;101455.13;5017071;28;45371;-60
2023/04/19 10:34:55;;;;;;;;;19.75;19.50;;;;;18.79;44.38;101465.09;5034033;28;46324;-60
2023/04/19 10:37:23;;;;;;;;;23.75;18.25;;;;;18.84;44.59;101460.69;5042200;28;45498;-62
2023/04/19 10:39:49;;;;;;;;;20.75;20.75;;;;;18.89;44.26;101467.00;5045544;28;45577;-65
2023/04/19 10:42:14;;;;;;;;;22.75;20.75;;;;;18.95;44.43;101464.28;5045339;28;45439;-61
2023/04/19 10:44:39;;;;;;;;;18.75;18.75;;;;;18.84;44.38;101462.44;5038516;28;46227;-59
2023/04/19 10:47:05;;;;;;;;;19.25;18.25;;;;;18.88;44.53;101467.00;5035168;28;45532;-61
2023/04/19 10:49:30;;;;;;;;;23.50;22.25;;;;;18.89;43.70;101466.06;5046129;28;45421;-59
2023/04/19 10:51:59;;;;;;;;;17.75;17.75;;;;;18.75;43.22;101449.75;5046786;28;45351;-62
2023/04/19 10:54:37;;;;;;;;;19.50;19.25;;;;;18.76;43.46;101455.19;5038373;28;45488;-61
2023/04/19 10:57:09;;;;;;;;;21.00;20.00;;;;;18.86;43.67;101458.88;5023666;28;45529;-62
2023/04/19 10:59:36;;;;;;;;;20.25;17.75;;;;;18.80;43.61;101453.38;5034430;28;45385;-61
2023/04/19 11:02:03;;;;;;;;;22.75;19.75;;;;;18.82;43.58;101451.59;5043893;28;45567;-62
2023/04/19 11:04:28;;;;;;;;;21.50;17.50;;;;;18.87;44.06;101457.94;5035138;28;46572;-62